Current Weather

Oued Irara

Oued Irara, Algeria (DAUH)

Report from: Monday, June 17, 2024 12:00 PM CET
Current time: Monday, June 17, 2024 12:24 PM CET

Nearby weather – Weather history – Daily summaries
Weather forecast

Temperature42.0°C (107.6°F)
Heat index39.6°C (103.3°F)
Dew point7.0°C (44.6°F)
Winds 4 kts (2.1 m/s, 4.6 mph) Vrb
Winds variableWinds variable from East-Northeast (60°) to Southeast (140°)
Visibility3.7 mi. (6 km)
Altimeter29.91 in.Hg (1013 mB)
Relative humidity12 %
Density altitude3,178 ft. (969 m)
Flight conditions Marginal Visual Meteorological Conditions
Raw dataDAUH 171100Z 10004KT 060V140 6000 NSC 42/07 Q1013
An error has occurred. This application may no longer respond until reloaded. Reload 🗙